sensor_id;sensor_type;location;lat;lon;timestamp;P1;durP1;ratioP1;P2;durP2;ratioP2
71622;SDS011;59473;53.214;5.728;2022-12-17T00:29:33;293.38;;;28.60;;
71622;SDS011;59473;53.214;5.728;2022-12-17T00:35:20;289.25;;;30.48;;
71622;SDS011;59473;53.214;5.728;2022-12-17T00:38:04;366.27;;;31.93;;
71622;SDS011;59473;53.214;5.728;2022-12-17T01:08:53;127.70;;;24.63;;
71622;SDS011;59473;53.214;5.728;2022-12-17T01:47:37;207.38;;;31.77;;
71622;SDS011;59473;53.214;5.728;2022-12-17T01:56:34;182.23;;;33.10;;
71622;SDS011;59473;53.214;5.728;2022-12-17T02:02:26;107.95;;;28.08;;
71622;SDS011;59473;53.214;5.728;2022-12-17T02:20:54;107.88;;;27.05;;
71622;SDS011;59473;53.214;5.728;2022-12-17T02:30:07;140.20;;;30.83;;
71622;SDS011;59473;53.214;5.728;2022-12-17T02:42:14;158.43;;;35.27;;
71622;SDS011;59473;53.214;5.728;2022-12-17T02:44:58;131.00;;;31.67;;
71622;SDS011;59473;53.214;5.728;2022-12-17T02:47:55;145.50;;;35.90;;
71622;SDS011;59473;53.214;5.728;2022-12-17T02:54:00;116.63;;;32.28;;
71622;SDS011;59473;53.214;5.728;2022-12-17T03:05:58;120.22;;;30.42;;
71622;SDS011;59473;53.214;5.728;2022-12-17T03:08:45;142.45;;;36.15;;
71622;SDS011;59473;53.214;5.728;2022-12-17T03:33:07;240.15;;;61.67;;
71622;SDS011;59473;53.214;5.728;2022-12-17T03:45:13;126.65;;;31.20;;
71622;SDS011;59473;53.214;5.728;2022-12-17T03:54:04;134.88;;;33.65;;
71622;SDS011;59473;53.214;5.728;2022-12-17T04:02:56;125.55;;;30.33;;
71622;SDS011;59473;53.214;5.728;2022-12-17T04:08:44;115.53;;;28.65;;
71622;SDS011;59473;53.214;5.728;2022-12-17T04:11:28;114.57;;;28.90;;
71622;SDS011;59473;53.214;5.728;2022-12-17T04:14:12;139.20;;;33.25;;
71622;SDS011;59473;53.214;5.728;2022-12-17T04:16:56;133.38;;;34.05;;
71622;SDS011;59473;53.214;5.728;2022-12-17T04:19:40;86.45;;;24.95;;
71622;SDS011;59473;53.214;5.728;2022-12-17T04:22:24;163.48;;;36.80;;
71622;SDS011;59473;53.214;5.728;2022-12-17T04:25:08;130.43;;;33.17;;
71622;SDS011;59473;53.214;5.728;2022-12-17T04:27:52;127.82;;;29.70;;
71622;SDS011;59473;53.214;5.728;2022-12-17T04:30:36;131.63;;;33.50;;
71622;SDS011;59473;53.214;5.728;2022-12-17T04:33:19;118.63;;;28.15;;
71622;SDS011;59473;53.214;5.728;2022-12-17T04:36:03;118.38;;;30.48;;
71622;SDS011;59473;53.214;5.728;2022-12-17T04:38:47;142.30;;;35.50;;
71622;SDS011;59473;53.214;5.728;2022-12-17T04:41:31;111.35;;;28.48;;
71622;SDS011;59473;53.214;5.728;2022-12-17T04:44:15;109.55;;;29.45;;
71622;SDS011;59473;53.214;5.728;2022-12-17T04:46:59;121.70;;;29.25;;
71622;SDS011;59473;53.214;5.728;2022-12-17T04:49:43;142.15;;;32.42;;
71622;SDS011;59473;53.214;5.728;2022-12-17T04:52:27;109.27;;;27.83;;
71622;SDS011;59473;53.214;5.728;2022-12-17T04:58:16;121.32;;;30.23;;
71622;SDS011;59473;53.214;5.728;2022-12-17T05:22:39;117.77;;;28.67;;
71622;SDS011;59473;53.214;5.728;2022-12-17T05:28:29;103.10;;;29.88;;
71622;SDS011;59473;53.214;5.728;2022-12-17T05:31:14;127.18;;;30.50;;
71622;SDS011;59473;53.214;5.728;2022-12-17T05:33:58;132.35;;;34.08;;
71622;SDS011;59473;53.214;5.728;2022-12-17T05:39:46;96.25;;;29.08;;
71622;SDS011;59473;53.214;5.728;2022-12-17T05:42:37;116.13;;;29.98;;
71622;SDS011;59473;53.214;5.728;2022-12-17T05:45:20;99.00;;;28.02;;
71622;SDS011;59473;53.214;5.728;2022-12-17T05:48:04;83.55;;;26.08;;
71622;SDS011;59473;53.214;5.728;2022-12-17T05:50:49;112.07;;;29.57;;
71622;SDS011;59473;53.214;5.728;2022-12-17T05:53:33;106.25;;;29.60;;
71622;SDS011;59473;53.214;5.728;2022-12-17T05:56:18;117.72;;;30.35;;
71622;SDS011;59473;53.214;5.728;2022-12-17T05:59:01;129.00;;;30.70;;
71622;SDS011;59473;53.214;5.728;2022-12-17T06:01:45;100.30;;;27.92;;
71622;SDS011;59473;53.214;5.728;2022-12-17T06:04:29;150.83;;;36.47;;
71622;SDS011;59473;53.214;5.728;2022-12-17T06:07:16;116.82;;;30.20;;
71622;SDS011;59473;53.214;5.728;2022-12-17T06:10:00;84.88;;;25.35;;
71622;SDS011;59473;53.214;5.728;2022-12-17T06:12:44;163.57;;;39.00;;
71622;SDS011;59473;53.214;5.728;2022-12-17T06:15:28;124.80;;;32.88;;
71622;SDS011;59473;53.214;5.728;2022-12-17T06:18:11;124.73;;;33.23;;
71622;SDS011;59473;53.214;5.728;2022-12-17T06:20:55;126.18;;;36.25;;
71622;SDS011;59473;53.214;5.728;2022-12-17T06:23:39;114.13;;;31.50;;
71622;SDS011;59473;53.214;5.728;2022-12-17T06:26:23;116.05;;;30.77;;
71622;SDS011;59473;53.214;5.728;2022-12-17T06:29:07;88.18;;;26.05;;
71622;SDS011;59473;53.214;5.728;2022-12-17T06:38:05;109.40;;;30.35;;
71622;SDS011;59473;53.214;5.728;2022-12-17T06:40:52;98.63;;;29.65;;
71622;SDS011;59473;53.214;5.728;2022-12-17T06:43:36;66.80;;;22.27;;
71622;SDS011;59473;53.214;5.728;2022-12-17T06:46:20;109.57;;;29.83;;
71622;SDS011;59473;53.214;5.728;2022-12-17T06:49:03;77.05;;;25.50;;
71622;SDS011;59473;53.214;5.728;2022-12-17T06:51:47;105.35;;;30.08;;
71622;SDS011;59473;53.214;5.728;2022-12-17T06:54:31;105.38;;;29.48;;
71622;SDS011;59473;53.214;5.728;2022-12-17T06:57:15;107.03;;;31.60;;
71622;SDS011;59473;53.214;5.728;2022-12-17T06:59:59;97.23;;;28.07;;
71622;SDS011;59473;53.214;5.728;2022-12-17T07:02:43;94.78;;;28.25;;
71622;SDS011;59473;53.214;5.728;2022-12-17T07:05:27;107.53;;;31.23;;
71622;SDS011;59473;53.214;5.728;2022-12-17T07:08:11;117.68;;;30.00;;
71622;SDS011;59473;53.214;5.728;2022-12-17T07:10:57;98.45;;;30.80;;
71622;SDS011;59473;53.214;5.728;2022-12-17T07:13:41;123.63;;;34.33;;
71622;SDS011;59473;53.214;5.728;2022-12-17T07:16:25;112.88;;;31.08;;
71622;SDS011;59473;53.214;5.728;2022-12-17T07:19:09;99.72;;;29.80;;
71622;SDS011;59473;53.214;5.728;2022-12-17T07:21:53;101.28;;;28.73;;
71622;SDS011;59473;53.214;5.728;2022-12-17T07:24:37;98.47;;;30.83;;
71622;SDS011;59473;53.214;5.728;2022-12-17T07:27:21;95.13;;;29.90;;
71622;SDS011;59473;53.214;5.728;2022-12-17T07:30:05;109.78;;;31.35;;
71622;SDS011;59473;53.214;5.728;2022-12-17T07:32:56;91.57;;;30.60;;
71622;SDS011;59473;53.214;5.728;2022-12-17T07:35:40;87.35;;;28.35;;
71622;SDS011;59473;53.214;5.728;2022-12-17T07:38:24;80.68;;;27.55;;
71622;SDS011;59473;53.214;5.728;2022-12-17T07:41:08;100.47;;;31.17;;
71622;SDS011;59473;53.214;5.728;2022-12-17T07:43:52;78.55;;;24.90;;
71622;SDS011;59473;53.214;5.728;2022-12-17T07:46:36;104.15;;;32.33;;
71622;SDS011;59473;53.214;5.728;2022-12-17T07:49:20;103.78;;;31.40;;
71622;SDS011;59473;53.214;5.728;2022-12-17T07:52:04;136.48;;;40.97;;
71622;SDS011;59473;53.214;5.728;2022-12-17T07:54:48;95.30;;;31.13;;
71622;SDS011;59473;53.214;5.728;2022-12-17T07:57:32;107.90;;;29.52;;
71622;SDS011;59473;53.214;5.728;2022-12-17T08:00:16;84.72;;;27.45;;
71622;SDS011;59473;53.214;5.728;2022-12-17T08:03:00;88.22;;;27.58;;
71622;SDS011;59473;53.214;5.728;2022-12-17T08:05:43;97.60;;;29.38;;
71622;SDS011;59473;53.214;5.728;2022-12-17T08:08:27;88.37;;;28.93;;
71622;SDS011;59473;53.214;5.728;2022-12-17T08:11:11;98.00;;;30.98;;
71622;SDS011;59473;53.214;5.728;2022-12-17T08:13:55;100.28;;;33.47;;
71622;SDS011;59473;53.214;5.728;2022-12-17T08:16:39;101.00;;;32.83;;
71622;SDS011;59473;53.214;5.728;2022-12-17T08:19:23;77.97;;;28.15;;
71622;SDS011;59473;53.214;5.728;2022-12-17T08:22:07;82.23;;;27.20;;
71622;SDS011;59473;53.214;5.728;2022-12-17T08:24:51;107.05;;;29.42;;
71622;SDS011;59473;53.214;5.728;2022-12-17T08:27:35;105.85;;;31.23;;
71622;SDS011;59473;53.214;5.728;2022-12-17T08:30:19;105.47;;;33.70;;
71622;SDS011;59473;53.214;5.728;2022-12-17T08:33:03;89.63;;;30.58;;
71622;SDS011;59473;53.214;5.728;2022-12-17T08:35:54;128.33;;;40.60;;
71622;SDS011;59473;53.214;5.728;2022-12-17T08:38:38;99.60;;;34.05;;
71622;SDS011;59473;53.214;5.728;2022-12-17T08:41:22;110.15;;;36.70;;
71622;SDS011;59473;53.214;5.728;2022-12-17T08:44:06;103.03;;;35.13;;
71622;SDS011;59473;53.214;5.728;2022-12-17T08:46:50;86.93;;;31.70;;
71622;SDS011;59473;53.214;5.728;2022-12-17T08:49:34;91.97;;;34.10;;
71622;SDS011;59473;53.214;5.728;2022-12-17T08:52:18;105.07;;;34.67;;
71622;SDS011;59473;53.214;5.728;2022-12-17T08:55:01;79.03;;;29.50;;
71622;SDS011;59473;53.214;5.728;2022-12-17T08:57:52;105.10;;;33.00;;
71622;SDS011;59473;53.214;5.728;2022-12-17T09:00:36;107.35;;;33.00;;
71622;SDS011;59473;53.214;5.728;2022-12-17T09:03:20;84.57;;;29.03;;
71622;SDS011;59473;53.214;5.728;2022-12-17T09:06:04;103.28;;;33.38;;
71622;SDS011;59473;53.214;5.728;2022-12-17T09:08:48;114.20;;;34.90;;
71622;SDS011;59473;53.214;5.728;2022-12-17T09:11:32;96.65;;;33.08;;
71622;SDS011;59473;53.214;5.728;2022-12-17T09:14:16;105.57;;;33.95;;
71622;SDS011;59473;53.214;5.728;2022-12-17T09:17:00;114.20;;;36.10;;
71622;SDS011;59473;53.214;5.728;2022-12-17T09:19:43;108.68;;;36.35;;
71622;SDS011;59473;53.214;5.728;2022-12-17T09:22:28;116.07;;;34.80;;
71622;SDS011;59473;53.214;5.728;2022-12-17T09:25:11;127.55;;;37.42;;
71622;SDS011;59473;53.214;5.728;2022-12-17T09:27:58;98.20;;;32.97;;
71622;SDS011;59473;53.214;5.728;2022-12-17T09:30:42;106.80;;;35.80;;
71622;SDS011;59473;53.214;5.728;2022-12-17T09:33:26;91.80;;;30.65;;
71622;SDS011;59473;53.214;5.728;2022-12-17T09:36:21;110.18;;;35.03;;
71622;SDS011;59473;53.214;5.728;2022-12-17T09:39:04;108.38;;;32.33;;
71622;SDS011;59473;53.214;5.728;2022-12-17T09:42:03;111.88;;;35.00;;
71622;SDS011;59473;53.214;5.728;2022-12-17T09:44:54;103.60;;;32.87;;
71622;SDS011;59473;53.214;5.728;2022-12-17T09:50:25;95.85;;;32.95;;
71622;SDS011;59473;53.214;5.728;2022-12-17T09:53:16;97.82;;;33.45;;
71622;SDS011;59473;53.214;5.728;2022-12-17T09:56:02;96.15;;;31.50;;
71622;SDS011;59473;53.214;5.728;2022-12-17T09:58:46;86.50;;;30.77;;
71622;SDS011;59473;53.214;5.728;2022-12-17T10:01:34;111.70;;;34.05;;
71622;SDS011;59473;53.214;5.728;2022-12-17T10:04:19;68.28;;;26.50;;
71622;SDS011;59473;53.214;5.728;2022-12-17T10:07:10;97.72;;;33.50;;
71622;SDS011;59473;53.214;5.728;2022-12-17T10:09:55;89.75;;;32.67;;
71622;SDS011;59473;53.214;5.728;2022-12-17T10:12:39;99.00;;;31.70;;
71622;SDS011;59473;53.214;5.728;2022-12-17T10:15:23;94.47;;;30.27;;
71622;SDS011;59473;53.214;5.728;2022-12-17T10:18:10;88.38;;;30.05;;
71622;SDS011;59473;53.214;5.728;2022-12-17T10:21:03;77.45;;;26.85;;
71622;SDS011;59473;53.214;5.728;2022-12-17T10:23:48;89.35;;;30.20;;
71622;SDS011;59473;53.214;5.728;2022-12-17T10:26:33;85.13;;;30.57;;
71622;SDS011;59473;53.214;5.728;2022-12-17T10:29:18;106.35;;;33.65;;
71622;SDS011;59473;53.214;5.728;2022-12-17T10:34:58;82.70;;;29.70;;
71622;SDS011;59473;53.214;5.728;2022-12-17T10:37:43;87.65;;;30.35;;
71622;SDS011;59473;53.214;5.728;2022-12-17T10:40:33;75.03;;;28.17;;
71622;SDS011;59473;53.214;5.728;2022-12-17T10:46:10;84.13;;;29.85;;
71622;SDS011;59473;53.214;5.728;2022-12-17T10:49:04;93.07;;;31.42;;
71622;SDS011;59473;53.214;5.728;2022-12-17T10:51:47;98.85;;;33.38;;
71622;SDS011;59473;53.214;5.728;2022-12-17T10:54:32;88.10;;;33.43;;
71622;SDS011;59473;53.214;5.728;2022-12-17T10:57:22;95.90;;;31.35;;
71622;SDS011;59473;53.214;5.728;2022-12-17T11:02:59;104.18;;;34.22;;
71622;SDS011;59473;53.214;5.728;2022-12-17T11:05:43;83.70;;;33.08;;
71622;SDS011;59473;53.214;5.728;2022-12-17T11:08:27;95.60;;;31.50;;
71622;SDS011;59473;53.214;5.728;2022-12-17T11:11:12;93.00;;;31.15;;
71622;SDS011;59473;53.214;5.728;2022-12-17T11:13:57;83.60;;;28.92;;
71622;SDS011;59473;53.214;5.728;2022-12-17T11:16:43;93.32;;;31.48;;
71622;SDS011;59473;53.214;5.728;2022-12-17T11:19:46;92.28;;;30.60;;
71622;SDS011;59473;53.214;5.728;2022-12-17T11:28:25;88.53;;;33.53;;
71622;SDS011;59473;53.214;5.728;2022-12-17T11:34:04;93.53;;;33.78;;
71622;SDS011;59473;53.214;5.728;2022-12-17T11:36:59;80.03;;;28.90;;
71622;SDS011;59473;53.214;5.728;2022-12-17T11:42:48;81.68;;;31.13;;
71622;SDS011;59473;53.214;5.728;2022-12-17T11:45:50;85.20;;;30.50;;
71622;SDS011;59473;53.214;5.728;2022-12-17T11:48:38;86.20;;;31.05;;
71622;SDS011;59473;53.214;5.728;2022-12-17T11:51:28;89.67;;;31.97;;
71622;SDS011;59473;53.214;5.728;2022-12-17T11:54:18;80.38;;;30.48;;
71622;SDS011;59473;53.214;5.728;2022-12-17T11:57:07;89.53;;;33.08;;
71622;SDS011;59473;53.214;5.728;2022-12-17T12:16:42;84.82;;;32.50;;
71622;SDS011;59473;53.214;5.728;2022-12-17T12:28:14;72.03;;;30.45;;
71622;SDS011;59473;53.214;5.728;2022-12-17T12:33:53;83.57;;;35.10;;
71622;SDS011;59473;53.214;5.728;2022-12-17T12:36:38;83.38;;;30.92;;
71622;SDS011;59473;53.214;5.728;2022-12-17T12:39:25;83.68;;;31.90;;
71622;SDS011;59473;53.214;5.728;2022-12-17T12:42:16;75.30;;;30.50;;
71622;SDS011;59473;53.214;5.728;2022-12-17T12:45:08;83.60;;;32.17;;
71622;SDS011;59473;53.214;5.728;2022-12-17T12:48:02;87.63;;;33.70;;
71622;SDS011;59473;53.214;5.728;2022-12-17T12:50:54;81.25;;;31.27;;
71622;SDS011;59473;53.214;5.728;2022-12-17T12:53:38;80.68;;;31.77;;
71622;SDS011;59473;53.214;5.728;2022-12-17T12:56:32;85.03;;;32.17;;
71622;SDS011;59473;53.214;5.728;2022-12-17T12:59:20;77.93;;;29.55;;
71622;SDS011;59473;53.214;5.728;2022-12-17T13:08:17;84.15;;;30.02;;
71622;SDS011;59473;53.214;5.728;2022-12-17T13:10:43;76.75;;;30.10;;
71622;SDS011;59473;53.214;5.728;2022-12-17T13:15:41;86.70;;;31.65;;
71622;SDS011;59473;53.214;5.728;2022-12-17T13:20:58;74.63;;;28.90;;
71622;SDS011;59473;53.214;5.728;2022-12-17T13:23:25;82.40;;;32.47;;
71622;SDS011;59473;53.214;5.728;2022-12-17T13:28:35;94.45;;;36.17;;
71622;SDS011;59473;53.214;5.728;2022-12-17T13:31:02;105.03;;;37.20;;
71622;SDS011;59473;53.214;5.728;2022-12-17T13:33:45;79.28;;;30.35;;
71622;SDS011;59473;53.214;5.728;2022-12-17T13:36:18;80.80;;;30.48;;
71622;SDS011;59473;53.214;5.728;2022-12-17T13:38:52;90.22;;;34.08;;
71622;SDS011;59473;53.214;5.728;2022-12-17T13:41:18;88.20;;;34.53;;
71622;SDS011;59473;53.214;5.728;2022-12-17T13:43:45;85.67;;;30.23;;
71622;SDS011;59473;53.214;5.728;2022-12-17T13:46:34;81.47;;;30.13;;
71622;SDS011;59473;53.214;5.728;2022-12-17T13:48:59;85.55;;;33.95;;
71622;SDS011;59473;53.214;5.728;2022-12-17T13:51:29;75.13;;;29.95;;
71622;SDS011;59473;53.214;5.728;2022-12-17T13:53:58;78.50;;;31.13;;
71622;SDS011;59473;53.214;5.728;2022-12-17T13:56:26;74.13;;;30.30;;
71622;SDS011;59473;53.214;5.728;2022-12-17T13:58:52;84.50;;;32.28;;
71622;SDS011;59473;53.214;5.728;2022-12-17T14:01:18;73.15;;;30.60;;
71622;SDS011;59473;53.214;5.728;2022-12-17T14:03:53;68.73;;;27.50;;
71622;SDS011;59473;53.214;5.728;2022-12-17T14:06:19;67.60;;;27.83;;
71622;SDS011;59473;53.214;5.728;2022-12-17T14:08:46;78.10;;;30.67;;
71622;SDS011;59473;53.214;5.728;2022-12-17T14:11:12;70.93;;;31.03;;
71622;SDS011;59473;53.214;5.728;2022-12-17T14:13:56;85.63;;;31.17;;
71622;SDS011;59473;53.214;5.728;2022-12-17T14:16:21;80.07;;;31.92;;
71622;SDS011;59473;53.214;5.728;2022-12-17T14:18:51;75.82;;;29.25;;
71622;SDS011;59473;53.214;5.728;2022-12-17T14:21:17;80.43;;;34.63;;
71622;SDS011;59473;53.214;5.728;2022-12-17T14:23:42;67.82;;;27.73;;
71622;SDS011;59473;53.214;5.728;2022-12-17T14:26:09;87.00;;;31.52;;
71622;SDS011;59473;53.214;5.728;2022-12-17T14:28:36;88.03;;;31.42;;
71622;SDS011;59473;53.214;5.728;2022-12-17T14:31:05;83.10;;;31.43;;
71622;SDS011;59473;53.214;5.728;2022-12-17T14:33:32;84.85;;;30.83;;
71622;SDS011;59473;53.214;5.728;2022-12-17T14:36:02;78.75;;;31.83;;
71622;SDS011;59473;53.214;5.728;2022-12-17T14:38:29;81.68;;;31.25;;
71622;SDS011;59473;53.214;5.728;2022-12-17T14:40:54;78.20;;;29.57;;
71622;SDS011;59473;53.214;5.728;2022-12-17T14:43:25;76.32;;;29.95;;
71622;SDS011;59473;53.214;5.728;2022-12-17T14:45:54;65.63;;;25.03;;
71622;SDS011;59473;53.214;5.728;2022-12-17T14:48:38;82.35;;;32.45;;
71622;SDS011;59473;53.214;5.728;2022-12-17T14:51:23;82.28;;;29.55;;
71622;SDS011;59473;53.214;5.728;2022-12-17T14:53:49;80.10;;;29.48;;
71622;SDS011;59473;53.214;5.728;2022-12-17T14:56:21;86.40;;;33.47;;
71622;SDS011;59473;53.214;5.728;2022-12-17T14:58:47;85.13;;;31.80;;
71622;SDS011;59473;53.214;5.728;2022-12-17T15:01:12;78.23;;;30.10;;
71622;SDS011;59473;53.214;5.728;2022-12-17T15:03:41;79.27;;;31.03;;
71622;SDS011;59473;53.214;5.728;2022-12-17T15:06:08;95.10;;;33.85;;
71622;SDS011;59473;53.214;5.728;2022-12-17T15:08:44;80.35;;;30.23;;
71622;SDS011;59473;53.214;5.728;2022-12-17T15:11:11;73.57;;;29.85;;
71622;SDS011;59473;53.214;5.728;2022-12-17T15:13:37;74.50;;;29.77;;
71622;SDS011;59473;53.214;5.728;2022-12-17T15:16:02;80.70;;;28.75;;
71622;SDS011;59473;53.214;5.728;2022-12-17T15:18:27;69.00;;;27.50;;
71622;SDS011;59473;53.214;5.728;2022-12-17T15:20:52;75.53;;;30.37;;
71622;SDS011;59473;53.214;5.728;2022-12-17T15:23:18;73.23;;;31.10;;
71622;SDS011;59473;53.214;5.728;2022-12-17T15:25:45;84.68;;;33.67;;
71622;SDS011;59473;53.214;5.728;2022-12-17T15:30:55;83.03;;;31.77;;
71622;SDS011;59473;53.214;5.728;2022-12-17T15:33:20;89.30;;;33.00;;
71622;SDS011;59473;53.214;5.728;2022-12-17T15:35:46;83.73;;;30.10;;
71622;SDS011;59473;53.214;5.728;2022-12-17T15:38:11;84.97;;;30.03;;
71622;SDS011;59473;53.214;5.728;2022-12-17T15:40:37;84.78;;;31.42;;
71622;SDS011;59473;53.214;5.728;2022-12-17T15:43:02;84.53;;;30.53;;
71622;SDS011;59473;53.214;5.728;2022-12-17T15:45:37;93.82;;;32.78;;
71622;SDS011;59473;53.214;5.728;2022-12-17T15:48:03;90.50;;;31.17;;
71622;SDS011;59473;53.214;5.728;2022-12-17T15:50:28;95.60;;;34.87;;
71622;SDS011;59473;53.214;5.728;2022-12-17T15:52:53;95.53;;;32.17;;
71622;SDS011;59473;53.214;5.728;2022-12-17T15:55:19;73.37;;;28.50;;
71622;SDS011;59473;53.214;5.728;2022-12-17T15:57:44;93.90;;;33.77;;
71622;SDS011;59473;53.214;5.728;2022-12-17T16:00:09;99.43;;;32.60;;
71622;SDS011;59473;53.214;5.728;2022-12-17T16:02:35;96.57;;;32.47;;
71622;SDS011;59473;53.214;5.728;2022-12-17T16:05:00;99.85;;;35.05;;
71622;SDS011;59473;53.214;5.728;2022-12-17T16:07:25;101.82;;;33.25;;
71622;SDS011;59473;53.214;5.728;2022-12-17T16:09:51;96.90;;;32.17;;
71622;SDS011;59473;53.214;5.728;2022-12-17T16:12:16;87.13;;;33.25;;
71622;SDS011;59473;53.214;5.728;2022-12-17T16:14:41;80.50;;;31.50;;
71622;SDS011;59473;53.214;5.728;2022-12-17T16:17:06;95.38;;;33.13;;
71622;SDS011;59473;53.214;5.728;2022-12-17T16:19:32;94.60;;;31.52;;
71622;SDS011;59473;53.214;5.728;2022-12-17T16:21:57;85.27;;;32.17;;
71622;SDS011;59473;53.214;5.728;2022-12-17T16:24:22;97.15;;;33.88;;
71622;SDS011;59473;53.214;5.728;2022-12-17T16:26:47;99.70;;;35.57;;
71622;SDS011;59473;53.214;5.728;2022-12-17T16:29:12;92.37;;;33.83;;
71622;SDS011;59473;53.214;5.728;2022-12-17T16:31:38;90.50;;;31.95;;
71622;SDS011;59473;53.214;5.728;2022-12-17T16:34:07;84.43;;;31.02;;
71622;SDS011;59473;53.214;5.728;2022-12-17T16:36:32;95.05;;;34.05;;
71622;SDS011;59473;53.214;5.728;2022-12-17T16:38:57;94.43;;;32.40;;
71622;SDS011;59473;53.214;5.728;2022-12-17T16:41:22;97.00;;;34.27;;
71622;SDS011;59473;53.214;5.728;2022-12-17T16:43:48;103.50;;;35.00;;
71622;SDS011;59473;53.214;5.728;2022-12-17T16:48:47;90.65;;;32.42;;
71622;SDS011;59473;53.214;5.728;2022-12-17T16:51:14;88.53;;;32.03;;
71622;SDS011;59473;53.214;5.728;2022-12-17T16:53:40;97.45;;;31.52;;
71622;SDS011;59473;53.214;5.728;2022-12-17T16:56:05;97.77;;;34.97;;
71622;SDS011;59473;53.214;5.728;2022-12-17T16:58:31;103.10;;;35.30;;
71622;SDS011;59473;53.214;5.728;2022-12-17T17:00:56;94.63;;;32.27;;
71622;SDS011;59473;53.214;5.728;2022-12-17T17:03:21;83.47;;;30.70;;
71622;SDS011;59473;53.214;5.728;2022-12-17T17:05:46;134.20;;;44.13;;
71622;SDS011;59473;53.214;5.728;2022-12-17T17:08:12;102.47;;;35.20;;
71622;SDS011;59473;53.214;5.728;2022-12-17T17:10:37;104.90;;;37.30;;
71622;SDS011;59473;53.214;5.728;2022-12-17T17:13:02;99.87;;;35.57;;
71622;SDS011;59473;53.214;5.728;2022-12-17T17:15:27;99.20;;;34.13;;
71622;SDS011;59473;53.214;5.728;2022-12-17T17:17:53;101.25;;;35.67;;
71622;SDS011;59473;53.214;5.728;2022-12-17T17:20:18;95.40;;;32.63;;
71622;SDS011;59473;53.214;5.728;2022-12-17T17:22:43;100.60;;;34.33;;
71622;SDS011;59473;53.214;5.728;2022-12-17T17:25:08;91.00;;;33.53;;
71622;SDS011;59473;53.214;5.728;2022-12-17T17:27:34;102.50;;;35.47;;
71622;SDS011;59473;53.214;5.728;2022-12-17T17:29:59;102.87;;;36.03;;
71622;SDS011;59473;53.214;5.728;2022-12-17T17:32:25;95.73;;;35.03;;
71622;SDS011;59473;53.214;5.728;2022-12-17T17:34:50;97.53;;;33.50;;
71622;SDS011;59473;53.214;5.728;2022-12-17T17:37:15;88.43;;;30.83;;
71622;SDS011;59473;53.214;5.728;2022-12-17T17:39:40;83.13;;;30.60;;
71622;SDS011;59473;53.214;5.728;2022-12-17T17:42:05;92.80;;;32.97;;
71622;SDS011;59473;53.214;5.728;2022-12-17T17:44:31;87.03;;;30.63;;
71622;SDS011;59473;53.214;5.728;2022-12-17T17:46:56;94.40;;;33.63;;
71622;SDS011;59473;53.214;5.728;2022-12-17T17:49:21;94.47;;;32.47;;
71622;SDS011;59473;53.214;5.728;2022-12-17T17:51:47;116.37;;;37.83;;
71622;SDS011;59473;53.214;5.728;2022-12-17T17:54:12;102.43;;;36.83;;
71622;SDS011;59473;53.214;5.728;2022-12-17T17:56:38;100.77;;;33.23;;
71622;SDS011;59473;53.214;5.728;2022-12-17T17:59:05;107.75;;;34.03;;
71622;SDS011;59473;53.214;5.728;2022-12-17T18:01:32;90.57;;;31.60;;
71622;SDS011;59473;53.214;5.728;2022-12-17T18:03:59;84.28;;;29.15;;
71622;SDS011;59473;53.214;5.728;2022-12-17T18:06:25;103.00;;;35.33;;
71622;SDS011;59473;53.214;5.728;2022-12-17T18:08:50;109.30;;;34.67;;
71622;SDS011;59473;53.214;5.728;2022-12-17T18:11:16;96.55;;;33.83;;
71622;SDS011;59473;53.214;5.728;2022-12-17T18:13:41;97.65;;;32.15;;
71622;SDS011;59473;53.214;5.728;2022-12-17T18:16:41;90.57;;;32.42;;
71622;SDS011;59473;53.214;5.728;2022-12-17T18:19:09;102.38;;;34.78;;
71622;SDS011;59473;53.214;5.728;2022-12-17T18:21:34;90.38;;;29.48;;
71622;SDS011;59473;53.214;5.728;2022-12-17T18:24:21;86.87;;;31.97;;
71622;SDS011;59473;53.214;5.728;2022-12-17T18:26:48;92.47;;;33.47;;
71622;SDS011;59473;53.214;5.728;2022-12-17T18:29:15;98.93;;;37.20;;
71622;SDS011;59473;53.214;5.728;2022-12-17T18:31:40;127.33;;;42.60;;
71622;SDS011;59473;53.214;5.728;2022-12-17T18:34:06;100.60;;;35.45;;
71622;SDS011;59473;53.214;5.728;2022-12-17T18:36:34;89.00;;;33.30;;
71622;SDS011;59473;53.214;5.728;2022-12-17T18:39:04;77.57;;;29.90;;
71622;SDS011;59473;53.214;5.728;2022-12-17T18:41:29;94.18;;;34.00;;
71622;SDS011;59473;53.214;5.728;2022-12-17T18:44:13;102.72;;;34.00;;
71622;SDS011;59473;53.214;5.728;2022-12-17T18:46:39;93.83;;;33.53;;
71622;SDS011;59473;53.214;5.728;2022-12-17T18:49:05;97.67;;;33.43;;
71622;SDS011;59473;53.214;5.728;2022-12-17T18:51:31;77.60;;;29.23;;
71622;SDS011;59473;53.214;5.728;2022-12-17T18:53:58;98.65;;;35.75;;
71622;SDS011;59473;53.214;5.728;2022-12-17T18:56:23;92.00;;;33.60;;
71622;SDS011;59473;53.214;5.728;2022-12-17T18:58:53;110.43;;;37.30;;
71622;SDS011;59473;53.214;5.728;2022-12-17T19:01:25;103.33;;;35.07;;
71622;SDS011;59473;53.214;5.728;2022-12-17T19:03:51;88.40;;;31.80;;
71622;SDS011;59473;53.214;5.728;2022-12-17T19:06:16;109.23;;;36.83;;
71622;SDS011;59473;53.214;5.728;2022-12-17T19:08:41;116.47;;;40.53;;
71622;SDS011;59473;53.214;5.728;2022-12-17T19:11:07;95.53;;;32.33;;
71622;SDS011;59473;53.214;5.728;2022-12-17T19:13:33;87.22;;;32.50;;
71622;SDS011;59473;53.214;5.728;2022-12-17T19:16:08;90.43;;;32.20;;
71622;SDS011;59473;53.214;5.728;2022-12-17T19:18:34;84.25;;;30.48;;
71622;SDS011;59473;53.214;5.728;2022-12-17T19:21:00;85.60;;;31.30;;
71622;SDS011;59473;53.214;5.728;2022-12-17T19:23:25;93.25;;;33.67;;
71622;SDS011;59473;53.214;5.728;2022-12-17T19:25:50;91.57;;;33.22;;
71622;SDS011;59473;53.214;5.728;2022-12-17T19:28:16;92.15;;;32.47;;
71622;SDS011;59473;53.214;5.728;2022-12-17T19:30:42;96.67;;;34.53;;
71622;SDS011;59473;53.214;5.728;2022-12-17T19:33:07;91.63;;;31.75;;
71622;SDS011;59473;53.214;5.728;2022-12-17T19:35:35;95.43;;;32.17;;
71622;SDS011;59473;53.214;5.728;2022-12-17T19:38:01;94.57;;;34.55;;
71622;SDS011;59473;53.214;5.728;2022-12-17T19:40:26;88.22;;;33.00;;
71622;SDS011;59473;53.214;5.728;2022-12-17T19:42:54;91.72;;;33.40;;
71622;SDS011;59473;53.214;5.728;2022-12-17T19:45:20;102.03;;;34.55;;
71622;SDS011;59473;53.214;5.728;2022-12-17T19:47:45;100.90;;;32.85;;
71622;SDS011;59473;53.214;5.728;2022-12-17T19:50:11;111.30;;;33.85;;
71622;SDS011;59473;53.214;5.728;2022-12-17T19:52:36;91.80;;;31.53;;
71622;SDS011;59473;53.214;5.728;2022-12-17T19:55:01;94.23;;;33.30;;
71622;SDS011;59473;53.214;5.728;2022-12-17T19:57:27;95.53;;;32.70;;
71622;SDS011;59473;53.214;5.728;2022-12-17T19:59:52;111.40;;;35.97;;
71622;SDS011;59473;53.214;5.728;2022-12-17T20:02:17;93.67;;;33.17;;
71622;SDS011;59473;53.214;5.728;2022-12-17T20:04:43;112.85;;;34.95;;
71622;SDS011;59473;53.214;5.728;2022-12-17T20:07:08;100.27;;;31.93;;
71622;SDS011;59473;53.214;5.728;2022-12-17T20:09:33;89.40;;;30.87;;
71622;SDS011;59473;53.214;5.728;2022-12-17T20:11:59;84.63;;;30.13;;
71622;SDS011;59473;53.214;5.728;2022-12-17T20:14:24;86.30;;;31.73;;